Time,TemperatureF,DewpointF,PressureIn,WindDirection,WindDirectionDegrees,WindSpeedMPH,WindSpeedGustMPH,Humidity,HourlyPrecipIn,Conditions,Clouds,dailyrainin,SoftwareType,DateUTC
2013-09-04 00:03:00,58.4,52.6,30.03,NNE,23,0.0,0.0,81,0.00,,,0.00,WUHU216HW,2013-09-04 04:03:00,
2013-09-04 00:09:00,58.2,52.8,30.03,NNE,23,0.0,0.0,82,0.00,,,0.00,WUHU216HW,2013-09-04 04:09:00,
2013-09-04 00:15:00,58.1,52.6,30.03,NNE,23,0.0,0.0,82,0.00,,,0.00,WUHU216HW,2013-09-04 04:15:00,
2013-09-04 00:20:00,57.9,52.4,30.03,NNE,23,0.0,0.0,82,0.00,,,0.00,WUHU216HW,2013-09-04 04:20:00,
2013-09-04 00:26:00,57.9,52.4,30.03,NNE,23,0.0,0.0,82,0.00,,,0.00,WUHU216HW,2013-09-04 04:26:00,
2013-09-04 00:31:00,57.7,52.5,30.03,NNE,23,0.0,0.0,83,0.00,,,0.00,WUHU216HW,2013-09-04 04:31:00,
2013-09-04 00:36:00,57.7,52.5,30.03,NNE,23,0.0,0.0,83,0.00,,,0.00,WUHU216HW,2013-09-04 04:36:00,
2013-09-04 00:41:00,57.5,52.4,30.03,NNE,23,0.0,0.0,83,0.00,,,0.00,WUHU216HW,2013-09-04 04:41:00,
2013-09-04 00:46:00,57.5,52.4,30.03,NNE,23,0.0,0.0,83,0.00,,,0.00,WUHU216HW,2013-09-04 04:46:00,
2013-09-04 00:52:00,57.3,52.2,30.03,NNE,23,0.0,0.0,83,0.00,,,0.00,WUHU216HW,2013-09-04 04:52:00,
2013-09-04 00:58:00,57.2,52.0,30.03,NNE,23,0.0,0.0,83,0.00,,,0.00,WUHU216HW,2013-09-04 04:58:00,
2013-09-04 01:04:00,57.0,51.8,30.03,NNE,23,0.0,0.0,83,0.00,,,0.00,WUHU216HW,2013-09-04 05:04:00,
2013-09-04 01:09:00,57.0,51.8,30.03,NNE,23,0.0,0.0,83,0.00,,,0.00,WUHU216HW,2013-09-04 05:09:00,
2013-09-04 01:15:00,56.8,52.0,30.03,NNE,23,0.0,0.0,84,0.00,,,0.00,WUHU216HW,2013-09-04 05:15:00,
2013-09-04 01:21:00,56.8,52.0,30.03,NNE,23,0.0,0.0,84,0.00,,,0.00,WUHU216HW,2013-09-04 05:21:00,
2013-09-04 01:27:00,56.4,51.6,30.03,NNE,23,0.0,0.0,84,0.00,,,0.00,WUHU216HW,2013-09-04 05:27:00,
2013-09-04 01:32:00,56.4,51.6,30.03,NNE,23,0.0,0.0,84,0.00,,,0.00,WUHU216HW,2013-09-04 05:32:00,
2013-09-04 01:38:00,56.4,51.6,30.03,NNE,23,0.0,0.0,84,0.00,,,0.00,WUHU216HW,2013-09-04 05:38:00,
2013-09-04 01:49:00,56.1,51.2,30.03,NNE,23,0.0,0.0,84,0.00,,,0.00,WUHU216HW,2013-09-04 05:49:00,
2013-09-04 01:55:00,56.1,51.6,30.03,NNE,23,0.0,0.0,85,0.00,,,0.00,WUHU216HW,2013-09-04 05:55:00,
2013-09-04 02:01:00,55.9,51.4,30.03,NNE,23,0.0,0.0,85,0.00,,,0.00,WUHU216HW,2013-09-04 06:01:00,
2013-09-04 02:06:00,55.9,51.4,30.04,NNE,23,0.0,0.0,85,0.00,,,0.00,WUHU216HW,2013-09-04 06:06:00,
2013-09-04 02:11:00,55.9,51.4,30.03,NNE,23,0.0,0.0,85,0.00,,,0.00,WUHU216HW,2013-09-04 06:11:00,
2013-09-04 02:16:00,55.7,51.2,30.03,NNE,23,0.0,0.0,85,0.00,,,0.00,WUHU216HW,2013-09-04 06:16:00,
2013-09-04 02:22:00,55.5,51.0,30.03,NNE,23,0.0,0.0,85,0.00,,,0.00,WUHU216HW,2013-09-04 06:22:00,
2013-09-04 02:27:00,55.5,51.0,30.03,NNE,23,0.0,0.0,85,0.00,,,0.00,WUHU216HW,2013-09-04 06:27:00,
2013-09-04 02:32:00,55.5,51.0,30.04,NNE,23,0.0,0.0,85,0.00,,,0.00,WUHU216HW,2013-09-04 06:32:00,
2013-09-04 02:38:00,55.5,51.0,30.04,NNE,23,0.0,0.0,85,0.00,,,0.00,WUHU216HW,2013-09-04 06:38:00,
2013-09-04 02:44:00,55.4,50.9,30.04,NNE,23,0.0,0.0,85,0.00,,,0.00,WUHU216HW,2013-09-04 06:44:00,
2013-09-04 02:49:00,55.4,51.2,30.03,NNE,23,0.0,0.0,86,0.00,,,0.00,WUHU216HW,2013-09-04 06:49:00,
2013-09-04 02:55:00,55.4,51.2,30.04,NNE,23,0.0,0.0,86,0.00,,,0.00,WUHU216HW,2013-09-04 06:55:00,
2013-09-04 03:01:00,55.4,51.2,30.04,NNE,23,0.0,0.0,86,0.00,,,0.00,WUHU216HW,2013-09-04 07:01:00,
2013-09-04 03:06:00,55.2,51.0,30.04,NNE,23,0.0,0.0,86,0.00,,,0.00,WUHU216HW,2013-09-04 07:06:00,
2013-09-04 03:11:00,55.2,51.0,30.04,NNE,23,0.0,0.0,86,0.00,,,0.00,WUHU216HW,2013-09-04 07:11:00,
2013-09-04 03:17:00,55.2,51.0,30.04,NNE,23,0.0,0.0,86,0.00,,,0.00,WUHU216HW,2013-09-04 07:17:00,
2013-09-04 03:22:00,55.0,50.8,30.04,NNE,23,0.0,0.0,86,0.00,,,0.00,WUHU216HW,2013-09-04 07:22:00,
2013-09-04 03:27:00,55.0,50.8,30.04,NNE,23,0.0,0.0,86,0.00,,,0.00,WUHU216HW,2013-09-04 07:27:00,
2013-09-04 03:33:00,54.8,50.7,30.04,NNE,23,0.0,0.0,86,0.00,,,0.00,WUHU216HW,2013-09-04 07:33:00,
2013-09-04 03:39:00,54.6,50.5,30.04,NNE,23,0.0,0.0,86,0.00,,,0.00,WUHU216HW,2013-09-04 07:39:00,
2013-09-04 03:45:00,54.3,50.1,30.04,NNE,23,0.0,0.0,86,0.00,,,0.00,WUHU216HW,2013-09-04 07:45:00,
2013-09-04 03:50:00,54.3,50.4,30.04,NNE,23,0.0,0.0,87,0.00,,,0.00,WUHU216HW,2013-09-04 07:50:00,
2013-09-04 03:55:00,54.3,50.4,30.05,NNE,23,0.0,0.0,87,0.00,,,0.00,WUHU216HW,2013-09-04 07:55:00,
2013-09-04 04:01:00,54.3,50.4,30.05,NNE,23,0.0,0.0,87,0.00,,,0.00,WUHU216HW,2013-09-04 08:01:00,
2013-09-04 04:07:00,54.5,50.6,30.05,NNE,23,0.0,0.0,87,0.00,,,0.00,WUHU216HW,2013-09-04 08:07:00,
2013-09-04 04:12:00,54.6,50.8,30.05,NNE,23,0.0,0.0,87,0.00,,,0.00,WUHU216HW,2013-09-04 08:12:00,
2013-09-04 04:17:00,54.6,51.1,30.05,NNE,23,0.0,0.0,88,0.00,,,0.00,WUHU216HW,2013-09-04 08:17:00,
2013-09-04 04:22:00,54.6,51.1,30.05,NNE,23,0.0,0.0,88,0.00,,,0.00,WUHU216HW,2013-09-04 08:22:00,
2013-09-04 04:28:00,54.6,51.1,30.05,NNE,23,0.0,0.0,88,0.00,,,0.00,WUHU216HW,2013-09-04 08:28:00,
2013-09-04 04:34:00,54.8,51.3,30.05,NNE,23,0.0,0.0,88,0.00,,,0.00,WUHU216HW,2013-09-04 08:34:00,
2013-09-04 04:39:00,55.0,51.5,30.05,NNE,23,0.0,0.0,88,0.00,,,0.00,WUHU216HW,2013-09-04 08:39:00,
2013-09-04 04:44:00,55.0,51.5,30.06,NNE,23,0.0,0.0,88,0.00,,,0.00,WUHU216HW,2013-09-04 08:44:00,
2013-09-04 04:50:00,55.0,51.8,30.06,NNE,23,0.0,0.0,89,0.00,,,0.00,WUHU216HW,2013-09-04 08:50:00,
2013-09-04 04:55:00,55.0,51.8,30.06,NNE,23,0.0,0.0,89,0.00,,,0.00,WUHU216HW,2013-09-04 08:55:00,
2013-09-04 05:00:00,55.0,51.8,30.06,NNE,23,0.0,0.0,89,0.00,,,0.00,WUHU216HW,2013-09-04 09:00:00,
2013-09-04 05:06:00,55.2,52.0,30.06,NNE,23,0.0,0.0,89,0.00,,,0.00,WUHU216HW,2013-09-04 09:06:00,
2013-09-04 05:12:00,55.2,52.0,30.06,NNE,23,0.0,0.0,89,0.00,,,0.00,WUHU216HW,2013-09-04 09:12:00,
2013-09-04 05:18:00,55.2,52.0,30.06,NNE,23,0.0,0.0,89,0.00,,,0.00,WUHU216HW,2013-09-04 09:18:00,
2013-09-04 05:24:00,55.2,52.3,30.06,NNE,23,0.0,0.0,90,0.00,,,0.00,WUHU216HW,2013-09-04 09:24:00,
2013-09-04 05:29:00,55.2,52.3,30.06,NNE,23,0.0,0.0,90,0.00,,,0.00,WUHU216HW,2013-09-04 09:29:00,
2013-09-04 05:34:00,55.2,52.3,30.06,NNE,23,0.0,0.0,90,0.00,,,0.00,WUHU216HW,2013-09-04 09:34:00,
2013-09-04 05:39:00,55.2,52.3,30.07,NNE,23,0.0,0.0,90,0.00,,,0.00,WUHU216HW,2013-09-04 09:39:00,
2013-09-04 05:45:00,55.2,52.3,30.07,NNE,23,0.0,0.0,90,0.00,,,0.00,WUHU216HW,2013-09-04 09:45:00,
2013-09-04 05:51:00,55.2,52.3,30.07,NNE,23,0.0,0.0,90,0.00,,,0.00,WUHU216HW,2013-09-04 09:51:00,
2013-09-04 05:56:00,55.2,52.3,30.07,NNE,23,0.0,0.0,90,0.00,,,0.00,WUHU216HW,2013-09-04 09:56:00,
2013-09-04 06:01:00,55.2,52.3,30.07,NNE,23,0.0,0.0,90,0.00,,,0.00,WUHU216HW,2013-09-04 10:01:00,
2013-09-04 06:07:00,55.2,52.3,30.07,NNE,23,0.0,0.0,90,0.00,,,0.00,WUHU216HW,2013-09-04 10:07:00,
2013-09-04 06:13:00,55.2,52.3,30.07,NNE,23,0.0,0.0,90,0.00,,,0.00,WUHU216HW,2013-09-04 10:13:00,
2013-09-04 06:18:00,55.2,52.3,30.08,NNE,23,0.0,0.0,90,0.00,,,0.00,WUHU216HW,2013-09-04 10:18:00,
2013-09-04 06:23:00,55.2,52.3,30.07,NNE,23,0.0,0.0,91,0.00,,,0.00,WUHU216HW,2013-09-04 10:23:00,
2013-09-04 06:28:00,55.2,52.6,30.08,NNE,23,0.0,0.0,91,0.00,,,0.00,WUHU216HW,2013-09-04 10:28:00,
2013-09-04 06:33:00,55.2,52.6,30.08,NNE,23,0.0,0.0,91,0.00,,,0.00,WUHU216HW,2013-09-04 10:33:00,
2013-09-04 06:38:00,55.2,52.6,30.08,NNE,23,0.0,0.0,91,0.00,,,0.00,WUHU216HW,2013-09-04 10:38:00,
2013-09-04 06:44:00,55.2,52.6,30.08,NNE,23,0.0,0.0,91,0.00,,,0.00,WUHU216HW,2013-09-04 10:44:00,
2013-09-04 06:50:00,55.2,52.6,30.08,NNE,23,0.0,0.0,91,0.00,,,0.00,WUHU216HW,2013-09-04 10:50:00,
2013-09-04 06:55:00,55.2,52.6,30.08,NNE,23,0.0,0.0,91,0.00,,,0.00,WUHU216HW,2013-09-04 10:55:00,
2013-09-04 07:01:00,55.0,52.4,30.08,NNE,23,0.0,0.0,91,0.00,,,0.00,WUHU216HW,2013-09-04 11:01:00,
2013-09-04 07:06:00,55.0,52.4,30.08,NNE,23,0.0,0.0,91,0.00,,,0.00,WUHU216HW,2013-09-04 11:06:00,
2013-09-04 07:12:00,54.8,52.2,30.09,NNE,23,0.0,0.0,91,0.00,,,0.00,WUHU216HW,2013-09-04 11:12:00,
2013-09-04 07:17:00,54.8,52.2,30.09,NNE,23,0.0,0.0,91,0.00,,,0.00,WUHU216HW,2013-09-04 11:17:00,
2013-09-04 07:23:00,55.0,52.7,30.09,NNE,23,0.0,0.0,92,0.00,,,0.00,WUHU216HW,2013-09-04 11:23:00,
2013-09-04 07:29:00,55.0,52.7,30.09,NNE,23,0.0,0.0,92,0.00,,,0.00,WUHU216HW,2013-09-04 11:29:00,
2013-09-04 07:35:00,55.2,52.9,30.10,NNE,23,0.0,0.0,92,0.00,,,0.00,WUHU216HW,2013-09-04 11:35:00,
2013-09-04 07:40:00,55.4,53.0,30.10,NNE,23,0.0,0.0,92,0.00,,,0.00,WUHU216HW,2013-09-04 11:40:00,
2013-09-04 07:46:00,55.5,53.2,30.09,NNE,23,0.0,0.0,92,0.00,,,0.00,WUHU216HW,2013-09-04 11:46:00,
2013-09-04 07:51:00,55.7,53.4,30.10,NNE,23,0.0,0.0,92,0.00,,,0.00,WUHU216HW,2013-09-04 11:51:00,
2013-09-04 07:56:00,55.7,53.4,30.10,NNE,23,0.0,0.0,92,0.00,,,0.00,WUHU216HW,2013-09-04 11:56:00,
2013-09-04 08:02:00,55.9,53.6,30.10,NNE,23,0.0,0.0,92,0.00,,,0.00,WUHU216HW,2013-09-04 12:02:00,
2013-09-04 08:07:00,56.1,53.8,30.10,NNE,23,0.0,0.0,92,0.00,,,0.00,WUHU216HW,2013-09-04 12:07:00,
2013-09-04 08:12:00,56.1,53.8,30.10,NNE,23,0.0,0.0,92,0.00,,,0.00,WUHU216HW,2013-09-04 12:12:00,
2013-09-04 08:17:00,56.4,54.1,30.10,NNE,23,0.0,0.0,92,0.00,,,0.00,WUHU216HW,2013-09-04 12:17:00,
2013-09-04 08:22:00,56.8,54.8,30.11,NNE,23,0.0,0.0,93,0.00,,,0.00,WUHU216HW,2013-09-04 12:22:00,
2013-09-04 08:28:00,57.0,54.7,30.11,NNE,23,0.0,0.0,92,0.00,,,0.00,WUHU216HW,2013-09-04 12:28:00,
2013-09-04 08:33:00,57.0,54.7,30.11,NNE,23,0.0,0.0,92,0.00,,,0.00,WUHU216HW,2013-09-04 12:33:00,
2013-09-04 08:38:00,57.3,55.3,30.11,NNE,23,0.0,0.0,92,0.00,,,0.00,WUHU216HW,2013-09-04 12:38:00,
2013-09-04 08:44:00,57.5,55.5,30.11,NNE,23,0.0,0.0,93,0.00,,,0.00,WUHU216HW,2013-09-04 12:44:00,
2013-09-04 08:49:00,57.7,55.4,30.11,NNE,23,0.0,0.0,92,0.00,,,0.00,WUHU216HW,2013-09-04 12:49:00,
2013-09-04 08:55:00,57.9,55.6,30.11,NNE,23,0.0,0.0,92,0.00,,,0.00,WUHU216HW,2013-09-04 12:55:00,
2013-09-04 09:01:00,58.2,55.9,30.11,NNE,23,0.0,0.0,92,0.00,,,0.00,WUHU216HW,2013-09-04 13:01:00,
2013-09-04 09:07:00,58.8,56.5,30.11,NNE,23,0.0,0.0,92,0.00,,,0.00,WUHU216HW,2013-09-04 13:07:00,
2013-09-04 09:12:00,59.3,57.0,30.11,NNE,23,0.0,0.0,92,0.00,,,0.00,WUHU216HW,2013-09-04 13:12:00,
2013-09-04 09:17:00,60.0,58.0,30.11,NE,45,0.0,0.0,93,0.00,,,0.00,WUHU216HW,2013-09-04 13:17:00,
2013-09-04 09:23:00,60.4,58.1,30.11,NNE,23,0.0,0.0,92,0.00,,,0.00,WUHU216HW,2013-09-04 13:23:00,
2013-09-04 09:28:00,60.4,57.8,30.11,NNE,23,0.0,0.0,91,0.00,,,0.00,WUHU216HW,2013-09-04 13:28:00,
2013-09-04 09:34:00,60.4,57.8,30.11,NNE,23,0.0,0.0,91,0.00,,,0.00,WUHU216HW,2013-09-04 13:34:00,
2013-09-04 09:40:00,60.6,57.7,30.11,NNE,23,0.0,0.0,90,0.00,,,0.00,WUHU216HW,2013-09-04 13:40:00,
2013-09-04 09:45:00,60.9,58.3,30.12,NNE,23,0.0,0.0,91,0.00,,,0.00,WUHU216HW,2013-09-04 13:45:00,
2013-09-04 09:51:00,61.1,58.2,30.12,NNE,23,0.0,0.0,90,0.00,,,0.00,WUHU216HW,2013-09-04 13:51:00,
2013-09-04 09:56:00,61.5,58.6,30.12,NNE,23,0.0,0.0,90,0.00,,,0.00,WUHU216HW,2013-09-04 13:56:00,
2013-09-04 10:02:00,61.7,58.8,30.12,NNE,23,0.0,0.0,90,0.00,,,0.00,WUHU216HW,2013-09-04 14:02:00,
2013-09-04 10:07:00,62.2,59.0,30.12,NNE,23,0.0,0.0,89,0.00,,,0.00,WUHU216HW,2013-09-04 14:07:00,
2013-09-04 10:12:00,62.7,59.5,30.12,NNE,23,0.0,0.0,89,0.00,,,0.00,WUHU216HW,2013-09-04 14:12:00,
2013-09-04 10:18:00,63.1,59.5,30.12,WSW,248,0.0,0.0,88,0.00,,,0.00,WUHU216HW,2013-09-04 14:18:00,
2013-09-04 10:23:00,63.6,59.7,30.12,WSW,248,0.0,0.0,87,0.00,,,0.00,WUHU216HW,2013-09-04 14:23:00,
2013-09-04 10:28:00,64.0,60.1,30.12,WSW,248,0.0,0.0,87,0.00,,,0.00,WUHU216HW,2013-09-04 14:28:00,
2013-09-04 10:34:00,64.2,60.6,30.12,WSW,248,0.0,0.0,86,0.00,,,0.00,WUHU216HW,2013-09-04 14:34:00,
2013-09-04 10:39:00,64.9,60.6,30.12,WSW,248,0.0,0.0,86,0.00,,,0.00,WUHU216HW,2013-09-04 14:39:00,
2013-09-04 10:44:00,65.3,60.9,30.12,WSW,248,0.0,0.0,86,0.00,,,0.00,WUHU216HW,2013-09-04 14:44:00,
2013-09-04 10:49:00,66.0,61.3,30.12,WSW,248,0.0,0.0,85,0.00,,,0.00,WUHU216HW,2013-09-04 14:49:00,
2013-09-04 10:54:00,66.5,61.5,30.12,WSW,248,0.0,0.0,84,0.00,,,0.00,WUHU216HW,2013-09-04 14:54:00,
2013-09-04 11:00:00,66.7,61.4,30.12,WSW,248,0.0,0.0,83,0.00,,,0.00,WUHU216HW,2013-09-04 15:00:00,
2013-09-04 11:06:00,67.6,61.9,30.12,WSW,248,0.0,0.0,82,0.00,,,0.00,WUHU216HW,2013-09-04 15:06:00,
2013-09-04 11:11:00,68.0,62.0,30.11,NW,315,0.0,0.0,81,0.00,,,0.00,WUHU216HW,2013-09-04 15:11:00,
2013-09-04 11:16:00,68.5,62.5,30.11,NW,315,0.0,0.0,81,0.00,,,0.00,WUHU216HW,2013-09-04 15:16:00,
2013-09-04 11:21:00,69.2,62.8,30.11,SSW,203,0.0,0.0,80,0.00,,,0.00,WUHU216HW,2013-09-04 15:21:00,
2013-09-04 11:26:00,69.6,62.7,30.11,SSW,203,0.0,0.0,79,0.00,,,0.00,WUHU216HW,2013-09-04 15:26:00,
2013-09-04 11:32:00,69.9,62.7,30.12,SSW,203,0.0,0.0,78,0.00,,,0.00,WUHU216HW,2013-09-04 15:32:00,
2013-09-04 11:37:00,70.3,63.1,30.12,SSW,203,0.0,0.0,78,0.00,,,0.00,WUHU216HW,2013-09-04 15:37:00,
2013-09-04 11:42:00,70.7,62.7,30.11,West,270,0.0,0.0,76,0.00,,,0.00,WUHU216HW,2013-09-04 15:42:00,
2013-09-04 11:47:00,70.8,62.5,30.11,WSW,248,0.0,0.0,75,0.00,,,0.00,WUHU216HW,2013-09-04 15:47:00,
2013-09-04 11:53:00,71.2,62.4,30.11,NW,315,0.0,0.0,74,0.00,,,0.00,WUHU216HW,2013-09-04 15:53:00,
2013-09-04 11:58:00,71.4,62.2,30.11,WSW,248,0.0,0.0,73,0.00,,,0.00,WUHU216HW,2013-09-04 15:58:00,
2013-09-04 12:03:00,71.9,63.2,30.11,WSW,248,0.0,0.0,74,0.00,,,0.00,WUHU216HW,2013-09-04 16:03:00,
2013-09-04 12:08:00,72.6,63.5,30.11,West,270,0.0,0.0,73,0.00,,,0.00,WUHU216HW,2013-09-04 16:08:00,
2013-09-04 12:14:00,73.0,63.1,30.10,North,0,0.0,0.0,71,0.00,,,0.00,WUHU216HW,2013-09-04 16:14:00,
2013-09-04 12:20:00,73.5,63.3,30.10,SSW,203,0.0,0.0,70,0.00,,,0.00,WUHU216HW,2013-09-04 16:20:00,
2013-09-04 12:26:00,74.1,63.7,30.10,SSW,203,0.0,0.0,70,0.00,,,0.00,WUHU216HW,2013-09-04 16:26:00,
2013-09-04 12:32:00,74.4,63.2,30.10,SW,225,0.0,0.0,67,0.00,,,0.00,WUHU216HW,2013-09-04 16:32:00,
2013-09-04 12:37:00,74.6,62.9,30.10,SW,225,0.0,0.0,67,0.00,,,0.00,WUHU216HW,2013-09-04 16:37:00,
2013-09-04 12:43:00,74.8,63.1,30.10,SW,225,0.0,0.0,67,0.00,,,0.00,WUHU216HW,2013-09-04 16:43:00,
2013-09-04 12:48:00,75.0,63.7,30.10,SW,225,0.0,0.0,68,0.00,,,0.00,WUHU216HW,2013-09-04 16:48:00,
2013-09-04 12:54:00,75.9,64.1,30.10,SW,225,0.0,0.0,67,0.00,,,0.00,WUHU216HW,2013-09-04 16:54:00,
2013-09-04 13:00:00,76.2,63.1,30.09,WSW,248,0.0,0.0,64,0.00,,,0.00,WUHU216HW,2013-09-04 17:00:00,
2013-09-04 13:05:00,75.9,62.8,30.09,NW,315,0.0,0.0,64,0.00,,,0.00,WUHU216HW,2013-09-04 17:05:00,
2013-09-04 13:10:00,76.1,62.8,30.09,SW,225,0.0,0.0,64,0.00,,,0.00,WUHU216HW,2013-09-04 17:10:00,
2013-09-04 13:16:00,76.1,63.0,30.09,SSW,203,0.0,0.0,64,0.00,,,0.00,WUHU216HW,2013-09-04 17:16:00,
2013-09-04 13:21:00,76.8,63.2,30.08,SSW,203,0.0,0.0,63,0.00,,,0.00,WUHU216HW,2013-09-04 17:21:00,
2013-09-04 13:27:00,77.0,63.4,30.09,SSW,203,0.0,0.0,63,0.00,,,0.00,WUHU216HW,2013-09-04 17:27:00,
2013-09-04 13:33:00,77.5,63.4,30.09,NW,315,0.0,0.0,62,0.00,,,0.00,WUHU216HW,2013-09-04 17:33:00,
2013-09-04 13:38:00,77.5,63.4,30.09,NW,315,0.0,0.0,62,0.00,,,0.00,WUHU216HW,2013-09-04 17:38:00,
2013-09-04 13:44:00,77.9,64.2,30.09,NW,315,0.0,0.0,63,0.00,,,0.00,WUHU216HW,2013-09-04 17:44:00,
2013-09-04 13:50:00,78.6,64.5,30.09,SSW,203,0.0,0.0,62,0.00,,,0.00,WUHU216HW,2013-09-04 17:50:00,
2013-09-04 13:55:00,79.1,64.1,30.09,SSW,203,0.0,0.0,60,0.00,,,0.00,WUHU216HW,2013-09-04 17:55:00,
2013-09-04 14:00:00,79.3,64.3,30.08,WSW,248,0.0,0.0,60,0.00,,,0.00,WUHU216HW,2013-09-04 18:00:00,
2013-09-04 14:06:00,79.7,64.1,30.08,WSW,248,0.0,0.0,59,0.00,,,0.00,WUHU216HW,2013-09-04 18:06:00,
2013-09-04 14:11:00,79.8,65.2,30.08,WSW,248,0.0,0.0,61,0.00,,,0.00,WUHU216HW,2013-09-04 18:11:00,
2013-09-04 14:16:00,80.4,65.3,30.08,WSW,248,0.0,0.0,60,0.00,,,0.00,WUHU216HW,2013-09-04 18:16:00,
2013-09-04 14:22:00,80.7,65.1,30.08,SW,225,0.0,0.0,59,0.00,,,0.00,WUHU216HW,2013-09-04 18:22:00,
2013-09-04 14:27:00,81.1,64.4,30.08,WSW,248,0.0,0.0,57,0.00,,,0.00,WUHU216HW,2013-09-04 18:27:00,
2013-09-04 14:32:00,81.1,64.4,30.07,WSW,248,0.0,0.0,57,0.00,,,0.00,WUHU216HW,2013-09-04 18:32:00,
2013-09-04 14:38:00,81.5,65.2,30.07,WSW,248,0.0,0.0,58,0.00,,,0.00,WUHU216HW,2013-09-04 18:38:00,
2013-09-04 14:43:00,81.6,64.8,30.07,WSW,248,0.0,0.0,57,0.00,,,0.00,WUHU216HW,2013-09-04 18:43:00,
2013-09-04 14:48:00,82.0,65.2,30.07,WSW,248,0.0,0.0,57,0.00,,,0.00,WUHU216HW,2013-09-04 18:48:00,
2013-09-04 14:54:00,82.5,65.7,30.07,WSW,248,0.0,0.0,57,0.00,,,0.00,WUHU216HW,2013-09-04 18:54:00,
2013-09-04 14:59:00,82.7,65.3,30.07,WSW,248,0.0,0.0,56,0.00,,,0.00,WUHU216HW,2013-09-04 18:59:00,
2013-09-04 15:05:00,82.7,65.3,30.07,WSW,248,0.0,0.0,56,0.00,,,0.00,WUHU216HW,2013-09-04 19:05:00,
2013-09-04 15:10:00,82.9,65.0,30.06,WSW,248,0.0,0.0,55,0.00,,,0.00,WUHU216HW,2013-09-04 19:10:00,
2013-09-04 15:15:00,83.3,65.3,30.06,WSW,248,0.0,0.0,55,0.00,,,0.00,WUHU216HW,2013-09-04 19:15:00,
2013-09-04 15:20:00,83.4,65.5,30.06,WSW,248,0.0,0.0,55,0.00,,,0.00,WUHU216HW,2013-09-04 19:20:00,
2013-09-04 15:25:00,83.8,66.4,30.06,WSW,248,0.0,0.0,56,0.00,,,0.00,WUHU216HW,2013-09-04 19:25:00,
2013-09-04 15:30:00,84.0,66.1,30.06,WSW,248,0.0,0.0,55,0.00,,,0.00,WUHU216HW,2013-09-04 19:30:00,
2013-09-04 15:36:00,84.0,65.0,30.06,WSW,248,0.0,0.0,53,0.00,,,0.00,WUHU216HW,2013-09-04 19:36:00,
2013-09-04 15:41:00,84.0,65.0,30.06,WSW,248,0.0,0.0,53,0.00,,,0.00,WUHU216HW,2013-09-04 19:41:00,
2013-09-04 15:47:00,84.0,65.0,30.06,WSW,248,0.0,0.0,53,0.00,,,0.00,WUHU216HW,2013-09-04 19:47:00,
2013-09-04 15:53:00,84.0,65.0,30.06,WSW,248,0.0,0.0,53,0.00,,,0.00,WUHU216HW,2013-09-04 19:53:00,
2013-09-04 15:58:00,84.2,64.7,30.06,WSW,248,0.0,0.0,52,0.00,,,0.00,WUHU216HW,2013-09-04 19:58:00,
2013-09-04 16:04:00,84.3,65.9,30.06,WSW,248,0.0,0.0,54,0.00,,,0.00,WUHU216HW,2013-09-04 20:04:00,
2013-09-04 16:09:00,84.7,66.2,30.06,WSW,248,0.0,0.0,54,0.00,,,0.00,WUHU216HW,2013-09-04 20:09:00,
2013-09-04 16:14:00,85.1,65.8,30.06,WSW,248,0.0,0.0,53,0.00,,,0.00,WUHU216HW,2013-09-04 20:14:00,
2013-09-04 16:20:00,85.2,66.2,30.06,WSW,248,0.0,0.0,53,0.00,,,0.00,WUHU216HW,2013-09-04 20:20:00,
2013-09-04 16:26:00,85.2,65.1,30.05,WSW,248,0.0,0.0,51,0.00,,,0.00,WUHU216HW,2013-09-04 20:26:00,
2013-09-04 16:32:00,85.2,64.6,30.05,WSW,248,0.0,0.0,50,0.00,,,0.00,WUHU216HW,2013-09-04 20:32:00,
2013-09-04 16:37:00,85.4,65.3,30.06,WSW,248,0.0,0.0,51,0.00,,,0.00,WUHU216HW,2013-09-04 20:37:00,
2013-09-04 16:43:00,85.6,66.0,30.06,WSW,248,0.0,0.0,52,0.00,,,0.00,WUHU216HW,2013-09-04 20:43:00,
2013-09-04 16:48:00,85.8,66.7,30.05,WSW,248,0.0,0.0,53,0.00,,,0.00,WUHU216HW,2013-09-04 20:48:00,
2013-09-04 16:54:00,85.6,66.0,30.05,WSW,248,0.0,0.0,52,0.00,,,0.00,WUHU216HW,2013-09-04 20:54:00,
2013-09-04 16:59:00,85.8,66.1,30.05,WSW,248,0.0,0.0,52,0.00,,,0.00,WUHU216HW,2013-09-04 20:59:00,
2013-09-04 17:05:00,85.8,66.1,30.05,WSW,248,0.0,0.0,52,0.00,,,0.00,WUHU216HW,2013-09-04 21:05:00,
2013-09-04 17:10:00,85.8,65.6,30.06,WSW,248,0.0,0.0,51,0.00,,,0.00,WUHU216HW,2013-09-04 21:10:00,
2013-09-04 17:15:00,85.8,66.1,30.05,WSW,248,0.0,0.0,52,0.00,,,0.00,WUHU216HW,2013-09-04 21:15:00,
2013-09-04 17:21:00,85.8,66.7,30.05,WSW,248,0.0,0.0,53,0.00,,,0.00,WUHU216HW,2013-09-04 21:21:00,
2013-09-04 17:26:00,85.8,66.1,30.05,WSW,248,0.0,0.0,52,0.00,,,0.00,WUHU216HW,2013-09-04 21:26:00,
2013-09-04 17:32:00,85.6,66.0,30.05,WSW,248,0.0,0.0,52,0.00,,,0.00,WUHU216HW,2013-09-04 21:32:00,
2013-09-04 17:37:00,85.6,67.0,30.05,WSW,248,0.0,0.0,54,0.00,,,0.00,WUHU216HW,2013-09-04 21:37:00,
2013-09-04 17:43:00,85.6,66.5,30.05,WSW,248,0.0,0.0,53,0.00,,,0.00,WUHU216HW,2013-09-04 21:43:00,
2013-09-04 17:49:00,85.2,66.7,30.05,WSW,248,0.0,0.0,54,0.00,,,0.00,WUHU216HW,2013-09-04 21:49:00,
2013-09-04 17:54:00,84.9,66.4,30.05,WSW,248,0.0,0.0,54,0.00,,,0.00,WUHU216HW,2013-09-04 21:54:00,
2013-09-04 18:00:00,84.5,66.0,30.05,WSW,248,0.0,0.0,54,0.00,,,0.00,WUHU216HW,2013-09-04 22:00:00,
2013-09-04 18:05:00,84.3,65.9,30.05,WSW,248,0.0,0.0,54,0.00,,,0.00,WUHU216HW,2013-09-04 22:05:00,
2013-09-04 18:11:00,83.8,65.4,30.05,WSW,248,0.0,0.0,54,0.00,,,0.00,WUHU216HW,2013-09-04 22:11:00,
2013-09-04 18:17:00,83.3,65.3,30.05,SW,225,0.0,0.0,55,0.00,,,0.00,WUHU216HW,2013-09-04 22:17:00,
2013-09-04 18:22:00,82.9,65.5,30.05,SW,225,0.0,0.0,56,0.00,,,0.00,WUHU216HW,2013-09-04 22:22:00,
2013-09-04 18:28:00,82.2,65.3,30.05,SW,225,0.0,0.0,57,0.00,,,0.00,WUHU216HW,2013-09-04 22:28:00,
2013-09-04 18:33:00,81.6,64.8,30.05,SW,225,0.0,0.0,57,0.00,,,0.00,WUHU216HW,2013-09-04 22:33:00,
2013-09-04 18:38:00,80.7,64.5,30.05,SW,225,0.0,0.0,58,0.00,,,0.00,WUHU216HW,2013-09-04 22:38:00,
2013-09-04 18:43:00,80.0,63.4,30.05,SW,225,0.0,0.0,57,0.00,,,0.00,WUHU216HW,2013-09-04 22:43:00,
2013-09-04 18:49:00,78.9,63.5,30.06,SW,225,0.0,0.0,59,0.00,,,0.00,WUHU216HW,2013-09-04 22:49:00,
2013-09-04 18:55:00,77.9,62.9,30.05,SW,225,0.0,0.0,59,0.00,,,0.00,WUHU216HW,2013-09-04 22:55:00,
2013-09-04 19:00:00,77.3,62.8,30.05,SW,225,0.0,0.0,61,0.00,,,0.00,WUHU216HW,2013-09-04 23:00:00,
2013-09-04 19:05:00,76.6,62.1,30.05,SW,225,0.0,0.0,61,0.00,,,0.00,WUHU216HW,2013-09-04 23:05:00,
2013-09-04 19:11:00,75.9,61.9,30.05,SW,225,0.0,0.0,62,0.00,,,0.00,WUHU216HW,2013-09-04 23:11:00,
2013-09-04 19:16:00,75.0,61.5,30.05,SW,225,0.0,0.0,63,0.00,,,0.00,WUHU216HW,2013-09-04 23:16:00,
2013-09-04 19:22:00,74.4,61.4,30.05,SW,225,0.0,0.0,64,0.00,,,0.00,WUHU216HW,2013-09-04 23:22:00,
2013-09-04 19:27:00,73.7,60.7,30.05,SW,225,0.0,0.0,64,0.00,,,0.00,WUHU216HW,2013-09-04 23:27:00,
2013-09-04 19:33:00,73.2,60.2,30.05,SW,225,0.0,0.0,64,0.00,,,0.00,WUHU216HW,2013-09-04 23:33:00,
2013-09-04 19:38:00,72.3,59.8,30.05,SW,225,0.0,0.0,65,0.00,,,0.00,WUHU216HW,2013-09-04 23:38:00,
2013-09-04 19:43:00,71.9,59.9,30.05,SW,225,0.0,0.0,66,0.00,,,0.00,WUHU216HW,2013-09-04 23:43:00,
2013-09-04 19:48:00,71.2,59.4,30.05,SW,225,0.0,0.0,67,0.00,,,0.00,WUHU216HW,2013-09-04 23:48:00,
2013-09-04 19:54:00,70.8,59.3,30.05,SW,225,0.0,0.0,67,0.00,,,0.00,WUHU216HW,2013-09-04 23:54:00,
2013-09-04 20:00:00,70.3,58.8,30.05,SW,225,0.0,0.0,67,0.00,,,0.00,WUHU216HW,2013-09-05 00:00:00,
2013-09-04 20:05:00,70.1,59.0,30.05,SW,225,0.0,0.0,68,0.00,,,0.00,WUHU216HW,2013-09-05 00:05:00,
2013-09-04 20:10:00,69.6,58.9,30.06,SW,225,0.0,0.0,69,0.00,,,0.00,WUHU216HW,2013-09-05 00:10:00,
2013-09-04 20:16:00,69.2,58.6,30.05,SW,225,0.0,0.0,69,0.00,,,0.00,WUHU216HW,2013-09-05 00:16:00,
2013-09-04 20:22:00,68.9,58.7,30.06,SW,225,0.0,0.0,70,0.00,,,0.00,WUHU216HW,2013-09-05 00:22:00,
2013-09-04 20:27:00,68.5,58.4,30.06,SW,225,0.0,0.0,70,0.00,,,0.00,WUHU216HW,2013-09-05 00:27:00,
2013-09-04 20:33:00,68.3,58.2,30.06,SW,225,0.0,0.0,70,0.00,,,0.00,WUHU216HW,2013-09-05 00:33:00,
2013-09-04 20:39:00,68.0,58.2,30.06,SW,225,0.0,0.0,71,0.00,,,0.00,WUHU216HW,2013-09-05 00:39:00,
2013-09-04 20:44:00,67.6,58.3,30.06,SW,225,0.0,0.0,72,0.00,,,0.00,WUHU216HW,2013-09-05 00:44:00,
2013-09-04 20:50:00,67.4,58.1,30.06,SW,225,0.0,0.0,72,0.00,,,0.00,WUHU216HW,2013-09-05 00:50:00,
2013-09-04 20:55:00,67.1,57.7,30.06,SW,225,0.0,0.0,72,0.00,,,0.00,WUHU216HW,2013-09-05 00:55:00,
2013-09-04 21:00:00,66.9,57.9,30.07,SW,225,0.0,0.0,73,0.00,,,0.00,WUHU216HW,2013-09-05 01:00:00,
2013-09-04 21:06:00,66.7,57.7,30.08,SW,225,0.0,0.0,73,0.00,,,0.00,WUHU216HW,2013-09-05 01:06:00,
2013-09-04 21:12:00,66.3,57.8,30.08,SW,225,0.0,0.0,74,0.00,,,0.00,WUHU216HW,2013-09-05 01:12:00,
2013-09-04 21:18:00,66.0,57.4,30.08,SW,225,0.0,0.0,74,0.00,,,0.00,WUHU216HW,2013-09-05 01:18:00,
2013-09-04 21:23:00,66.0,57.4,30.08,SW,225,0.0,0.0,74,0.00,,,0.00,WUHU216HW,2013-09-05 01:23:00,
2013-09-04 21:29:00,65.8,57.2,30.08,SW,225,0.0,0.0,74,0.00,,,0.00,WUHU216HW,2013-09-05 01:29:00,
2013-09-04 21:34:00,65.4,57.3,30.08,SW,225,0.0,0.0,75,0.00,,,0.00,WUHU216HW,2013-09-05 01:34:00,
2013-09-04 21:40:00,65.3,57.1,30.08,SW,225,0.0,0.0,75,0.00,,,0.00,WUHU216HW,2013-09-05 01:40:00,
2013-09-04 21:46:00,65.1,57.3,30.07,SW,225,0.0,0.0,76,0.00,,,0.00,WUHU216HW,2013-09-05 01:46:00,
2013-09-04 21:51:00,65.1,57.7,30.07,SW,225,0.0,0.0,77,0.00,,,0.00,WUHU216HW,2013-09-05 01:51:00,
2013-09-04 21:57:00,64.9,57.5,30.07,SW,225,0.0,0.0,77,0.00,,,0.00,WUHU216HW,2013-09-05 01:57:00,
2013-09-04 22:03:00,64.7,57.7,30.07,SW,225,0.0,0.0,78,0.00,,,0.00,WUHU216HW,2013-09-05 02:03:00,
2013-09-04 22:09:00,64.5,57.5,30.07,SW,225,0.0,0.0,78,0.00,,,0.00,WUHU216HW,2013-09-05 02:09:00,
2013-09-04 22:14:00,64.2,57.2,30.07,SW,225,0.0,0.0,78,0.00,,,0.00,WUHU216HW,2013-09-05 02:14:00,
2013-09-04 22:20:00,64.2,57.2,30.08,SW,225,0.0,0.0,78,0.00,,,0.00,WUHU216HW,2013-09-05 02:20:00,
2013-09-04 22:25:00,64.0,57.0,30.08,SW,225,0.0,0.0,78,0.00,,,0.00,WUHU216HW,2013-09-05 02:25:00,
2013-09-04 22:30:00,63.8,56.8,30.08,SW,225,0.0,0.0,78,0.00,,,0.00,WUHU216HW,2013-09-05 02:30:00,
2013-09-04 22:36:00,63.5,56.8,30.09,SW,225,0.0,0.0,79,0.00,,,0.00,WUHU216HW,2013-09-05 02:36:00,
2013-09-04 22:41:00,63.5,56.8,30.08,SW,225,0.0,0.0,79,0.00,,,0.00,WUHU216HW,2013-09-05 02:41:00,
2013-09-04 22:46:00,63.1,56.8,30.08,SW,225,0.0,0.0,79,0.00,,,0.00,WUHU216HW,2013-09-05 02:46:00,
2013-09-04 22:52:00,63.1,56.8,30.08,SW,225,0.0,0.0,80,0.00,,,0.00,WUHU216HW,2013-09-05 02:52:00,
2013-09-04 22:57:00,62.9,56.6,30.08,SW,225,0.0,0.0,80,0.00,,,0.00,WUHU216HW,2013-09-05 02:57:00,
2013-09-04 23:03:00,62.7,56.4,30.08,SW,225,0.0,0.0,80,0.00,,,0.00,WUHU216HW,2013-09-05 03:03:00,
2013-09-04 23:08:00,62.7,56.4,30.08,SW,225,0.0,0.0,80,0.00,,,0.00,WUHU216HW,2013-09-05 03:08:00,
2013-09-04 23:14:00,62.6,56.6,30.08,SW,225,0.0,0.0,81,0.00,,,0.00,WUHU216HW,2013-09-05 03:14:00,
2013-09-04 23:19:00,62.4,56.4,30.08,SW,225,0.0,0.0,81,0.00,,,0.00,WUHU216HW,2013-09-05 03:19:00,
2013-09-04 23:24:00,62.4,56.4,30.08,SW,225,0.0,0.0,81,0.00,,,0.00,WUHU216HW,2013-09-05 03:24:00,
2013-09-04 23:30:00,62.4,56.4,30.08,SW,225,0.0,0.0,81,0.00,,,0.00,WUHU216HW,2013-09-05 03:30:00,
2013-09-04 23:35:00,62.2,56.6,30.08,SW,225,0.0,0.0,82,0.00,,,0.00,WUHU216HW,2013-09-05 03:35:00,
2013-09-04 23:40:00,62.2,56.3,30.08,SW,225,0.0,0.0,81,0.00,,,0.00,WUHU216HW,2013-09-05 03:40:00,
2013-09-04 23:46:00,61.8,56.3,30.08,SW,225,0.0,0.0,82,0.00,,,0.00,WUHU216HW,2013-09-05 03:46:00,
2013-09-04 23:51:00,61.8,56.3,30.09,SW,225,0.0,0.0,82,0.00,,,0.00,WUHU216HW,2013-09-05 03:51:00,
2013-09-04 23:56:00,61.7,56.1,30.08,SW,225,0.0,0.0,82,0.00,,,0.00,WUHU216HW,2013-09-05 03:56:00,